createdAt,value
2019-05-13T00:04:33.646Z,21.00
2019-05-13T00:09:39.967Z,29.00
2019-05-13T00:14:44.164Z,17.50
2019-05-13T00:19:50.289Z,15.29
2019-05-13T00:24:54.259Z,11.50
2019-05-13T00:29:59.114Z,17.57
2019-05-13T00:35:07.006Z,14.29
2019-05-13T00:40:14.560Z,15.57
2019-05-13T00:45:21.922Z,15.63
2019-05-13T00:50:27.255Z,16.14
2019-05-13T00:55:34.392Z,15.00
2019-05-13T01:00:39.595Z,15.67
2019-05-13T01:05:45.656Z,11.14
2019-05-13T01:10:53.785Z,14.29
2019-05-13T01:15:59.812Z,12.00
2019-05-13T01:21:06.960Z,9.33
2019-05-13T01:26:14.853Z,20.40
2019-05-13T01:31:18.514Z,10.00
2019-05-13T01:36:23.446Z,14.67
2019-05-13T01:41:27.453Z,14.50
2019-05-13T01:46:34.519Z,19.43
2019-05-13T01:51:39.519Z,17.14
2019-05-13T01:56:46.251Z,17.00
2019-05-13T02:01:54.094Z,15.29
2019-05-13T02:07:00.621Z,13.00
2019-05-13T02:12:06.478Z,11.14
2019-05-13T02:17:10.071Z,10.00
2019-05-13T02:22:14.589Z,9.00
2019-05-13T02:27:25.546Z,14.00
2019-05-13T02:32:33.087Z,11.17
2019-05-13T02:37:38.688Z,16.57
2019-05-13T02:42:44.771Z,9.50
2019-05-13T02:47:51.980Z,7.00
2019-05-13T02:52:54.280Z,6.60
2019-05-13T02:57:59.428Z,5.00
2019-05-13T03:03:03.459Z,6.67
2019-05-13T03:08:07.973Z,8.00
2019-05-13T03:13:12.821Z,7.83
2019-05-13T03:18:22.560Z,7.80
2019-05-13T03:23:26.476Z,10.00
2019-05-13T03:28:33.675Z,11.00
2019-05-13T03:33:37.606Z,7.00
2019-05-13T03:39:01.850Z,10.20
2019-05-13T03:43:55.204Z,9.89
2019-05-13T03:49:02.448Z,7.50
2019-05-13T03:54:07.842Z,10.00
2019-05-13T03:59:15.821Z,8.90
2019-05-13T04:04:23.291Z,8.00
2019-05-13T04:09:31.418Z,9.00
2019-05-13T04:14:33.397Z,9.00
2019-05-13T04:19:37.835Z,12.17
2019-05-13T04:24:44.123Z,10.29
2019-05-13T04:29:52.517Z,7.67
2019-05-13T04:34:58.827Z,13.86
2019-05-13T04:40:05.254Z,8.00
2019-05-13T04:45:13.353Z,10.00
2019-05-13T04:50:16.799Z,9.67
2019-05-13T04:55:22.920Z,5.00
2019-05-13T05:00:42.690Z,5.20
2019-05-13T05:05:47.078Z,17.00
2019-05-13T05:11:05.687Z,10.50
2019-05-13T05:16:27.881Z,11.29
2019-05-13T05:21:38.569Z,11.00
2019-05-13T05:26:47.633Z,10.33
2019-05-13T05:32:01.950Z,22.00
2019-05-13T05:37:22.329Z,12.43
2019-05-13T05:42:29.183Z,10.71
2019-05-13T05:47:34.155Z,11.75
2019-05-13T05:52:42.028Z,13.71
2019-05-13T05:57:48.950Z,10.33
2019-05-13T06:02:57.261Z,11.17
2019-05-13T06:08:04.559Z,9.50
2019-05-13T06:13:09.432Z,8.67
2019-05-13T06:18:16.873Z,9.22
2019-05-13T06:23:22.553Z,9.43
2019-05-13T06:28:25.856Z,14.00
2019-05-13T06:33:28.921Z,7.40
2019-05-13T06:38:32.313Z,7.80
2019-05-13T06:43:41.722Z,10.67
2019-05-13T06:48:46.804Z,7.40
2019-05-13T06:53:52.277Z,12.00
2019-05-13T06:58:56.348Z,11.33
2019-05-13T07:04:05.222Z,10.82
2019-05-13T07:09:13.362Z,8.50
2019-05-13T07:14:21.727Z,18.71
2019-05-13T07:19:25.282Z,8.00
2019-05-13T07:24:31.976Z,7.33
2019-05-13T07:29:34.875Z,9.00
2019-05-13T07:34:43.852Z,6.80
2019-05-13T07:39:48.156Z,8.17
2019-05-13T07:44:52.349Z,10.00
2019-05-13T07:50:02.510Z,7.20
2019-05-13T07:55:06.077Z,9.00
2019-05-13T08:00:12.469Z,8.67
2019-05-13T08:05:18.368Z,9.00
2019-05-13T08:10:23.567Z,8.00
2019-05-13T08:15:31.716Z,8.20
2019-05-13T08:20:38.246Z,6.20
2019-05-13T08:25:42.630Z,6.00
2019-05-13T08:30:46.449Z,7.50
2019-05-13T08:35:56.461Z,8.67
2019-05-13T08:40:58.451Z,10.17
2019-05-13T08:46:02.213Z,9.00
2019-05-13T08:51:08.230Z,8.00
2019-05-13T08:56:12.542Z,6.00
2019-05-13T09:01:19.537Z,6.40
2019-05-13T09:06:24.479Z,15.71
2019-05-13T09:11:31.457Z,8.33
2019-05-13T09:16:38.834Z,7.33
2019-05-13T09:21:42.822Z,9.00
2019-05-13T09:26:46.571Z,8.33
2019-05-13T09:31:51.997Z,8.00
2019-05-13T09:36:54.519Z,8.00
2019-05-13T09:42:02.621Z,10.67
2019-05-13T09:47:12.774Z,23.00
2019-05-13T09:52:17.777Z,11.33
2019-05-13T09:57:25.293Z,13.33
2019-05-13T10:02:32.279Z,16.14
2019-05-13T10:07:36.181Z,11.00
2019-05-13T10:12:42.509Z,10.33
2019-05-13T10:17:47.212Z,16.71
2019-05-13T10:22:52.893Z,12.14
2019-05-13T10:28:02.113Z,9.17
2019-05-13T10:33:12.391Z,9.90
2019-05-13T10:38:15.995Z,9.33
2019-05-13T10:43:31.145Z,7.80
2019-05-13T10:48:25.319Z,5.67
2019-05-13T10:53:31.786Z,5.67
2019-05-13T10:58:37.962Z,6.00
2019-05-13T11:03:43.137Z,5.00
2019-05-13T11:08:53.042Z,8.78
2019-05-13T11:13:59.412Z,7.00
2019-05-13T11:19:04.851Z,6.33
2019-05-13T11:24:12.261Z,6.00
2019-05-13T11:29:15.482Z,6.00
2019-05-13T11:34:21.610Z,7.00
2019-05-13T11:39:24.575Z,19.33
2019-05-13T11:44:27.494Z,4.00
2019-05-13T11:49:34.466Z,7.00
2019-05-13T11:54:38.730Z,7.80
2019-05-13T11:59:43.331Z,4.33
2019-05-13T12:04:47.787Z,6.33
2019-05-13T12:09:52.005Z,7.67
2019-05-13T12:15:22.172Z,8.22
2019-05-13T12:20:12.104Z,6.00
2019-05-13T12:25:17.456Z,8.00
2019-05-13T12:30:22.842Z,5.67
2019-05-13T12:35:32.256Z,7.00
2019-05-13T12:40:35.171Z,7.00
2019-05-13T12:45:42.734Z,7.67
2019-05-13T12:50:43.976Z,11.00
2019-05-13T12:55:52.566Z,6.67
2019-05-13T13:00:53.496Z,8.00
2019-05-13T13:06:21.008Z,6.33
2019-05-13T13:11:06.284Z,8.50
2019-05-13T13:16:12.725Z,21.29
2019-05-13T13:21:16.442Z,7.17
2019-05-13T13:26:21.916Z,11.33
2019-05-13T13:31:26.943Z,9.33
2019-05-13T13:36:33.518Z,9.67
2019-05-13T13:41:43.434Z,11.29
2019-05-13T13:46:49.203Z,9.83
2019-05-13T13:51:52.707Z,9.86
2019-05-13T13:56:58.386Z,12.57
2019-05-13T14:02:05.581Z,11.00
2019-05-13T14:07:28.070Z,8.00
2019-05-13T14:12:14.539Z,9.67
2019-05-13T14:17:18.734Z,9.40
2019-05-13T14:22:22.882Z,10.00
2019-05-13T14:27:27.951Z,7.00
2019-05-13T14:32:32.488Z,9.00
2019-05-13T14:37:36.299Z,6.33
2019-05-13T14:42:42.455Z,7.00
2019-05-13T14:47:49.582Z,11.70
2019-05-13T14:52:53.418Z,8.00
2019-05-13T14:58:01.577Z,12.33
2019-05-13T15:03:09.793Z,7.50
2019-05-13T15:08:14.446Z,9.00
2019-05-13T15:13:20.882Z,5.86
2019-05-13T15:18:24.706Z,6.00
2019-05-13T15:23:31.713Z,9.00
2019-05-13T15:28:34.867Z,6.67
2019-05-13T15:33:41.561Z,8.17
2019-05-13T15:38:46.050Z,7.00
2019-05-13T15:43:51.964Z,7.67
2019-05-13T15:48:57.618Z,4.00
2019-05-13T15:54:02.392Z,8.00
2019-05-13T15:59:09.338Z,9.20
2019-05-13T16:04:13.730Z,7.40
2019-05-13T16:09:21.243Z,5.89
2019-05-13T16:14:25.150Z,8.83
2019-05-13T16:19:33.224Z,9.40
2019-05-13T16:24:36.376Z,7.80
2019-05-13T16:29:42.225Z,9.00
2019-05-13T16:34:51.933Z,7.40
2019-05-13T16:39:57.724Z,6.20
2019-05-13T16:45:01.493Z,8.00
2019-05-13T16:50:07.520Z,6.00
2019-05-13T16:55:13.016Z,9.17
2019-05-13T17:00:17.144Z,6.80
2019-05-13T17:05:22.970Z,12.00
2019-05-13T17:10:26.600Z,7.67
2019-05-13T17:15:33.870Z,10.67
2019-05-13T17:20:41.698Z,10.71
2019-05-13T17:25:45.519Z,8.00
2019-05-13T17:30:51.732Z,8.00
2019-05-13T17:35:54.661Z,13.33
2019-05-13T17:40:58.494Z,6.33
2019-05-13T17:46:05.565Z,10.83
2019-05-13T17:51:09.808Z,6.67
2019-05-13T17:56:13.507Z,5.00
2019-05-13T18:01:17.188Z,5.67
2019-05-13T18:06:24.152Z,6.67
2019-05-13T18:11:28.455Z,7.00
2019-05-13T18:16:34.919Z,5.20
2019-05-13T18:21:42.408Z,5.00
2019-05-13T18:26:47.763Z,26.43
2019-05-13T18:31:54.758Z,19.00
2019-05-13T18:37:02.502Z,15.29
2019-05-13T18:42:06.249Z,15.25
2019-05-13T18:47:12.049Z,10.00
2019-05-13T18:52:16.129Z,11.33
2019-05-13T18:57:21.299Z,11.00
2019-05-13T19:02:27.607Z,10.86
2019-05-13T19:07:32.444Z,18.71
2019-05-13T19:12:36.132Z,8.67
2019-05-13T19:17:41.558Z,9.00
2019-05-13T19:22:45.626Z,15.60
2019-05-13T19:27:48.969Z,12.67
2019-05-13T19:32:52.838Z,10.83
2019-05-13T19:38:01.614Z,21.50
2019-05-13T19:43:06.868Z,9.33
2019-05-13T19:48:15.258Z,9.60
2019-05-13T19:53:22.171Z,5.00
2019-05-13T19:58:29.052Z,5.60
2019-05-13T20:03:35.400Z,6.40
2019-05-13T20:08:42.798Z,7.00
2019-05-13T20:13:46.475Z,9.00
2019-05-13T20:18:51.798Z,10.00
2019-05-13T20:23:56.703Z,8.00
2019-05-13T20:29:01.628Z,8.00
2019-05-13T20:34:07.485Z,9.67
2019-05-13T20:39:12.496Z,10.33
2019-05-13T20:44:17.047Z,12.71
2019-05-13T20:49:21.829Z,10.17
2019-05-13T20:54:25.882Z,16.00
2019-05-13T20:59:32.013Z,27.00
2019-05-13T21:04:36.613Z,16.00
2019-05-13T21:09:42.331Z,13.71
2019-05-13T21:14:45.558Z,16.67
2019-05-13T21:19:52.674Z,26.86
2019-05-13T21:24:58.136Z,16.00
2019-05-13T21:30:08.705Z,21.25
2019-05-13T21:35:12.414Z,18.00
2019-05-13T21:40:17.435Z,20.00
2019-05-13T21:45:20.623Z,19.67
2019-05-13T21:50:34.151Z,22.25
2019-05-13T21:55:34.744Z,19.87
2019-05-13T22:00:38.835Z,26.00
2019-05-13T22:05:43.888Z,22.14
2019-05-13T22:10:47.232Z,26.00
2019-05-13T22:15:52.391Z,28.50
2019-05-13T22:20:55.583Z,20.67
2019-05-13T22:26:01.581Z,20.43
2019-05-13T22:31:07.455Z,21.29
2019-05-13T22:36:13.290Z,22.00
2019-05-13T22:41:18.193Z,19.83
2019-05-13T22:46:24.270Z,15.00
2019-05-13T22:51:32.131Z,19.00
2019-05-13T22:56:36.123Z,17.00
2019-05-13T23:01:41.822Z,17.00
2019-05-13T23:06:48.114Z,18.50
2019-05-13T23:11:52.553Z,18.71
2019-05-13T23:17:01.886Z,18.87
2019-05-13T23:22:05.899Z,15.86
2019-05-13T23:27:12.507Z,20.00
2019-05-13T23:32:16.791Z,21.00
2019-05-13T23:37:22.816Z,24.87
2019-05-13T23:42:27.922Z,14.43
2019-05-13T23:47:36.235Z,11.00
2019-05-13T23:52:42.839Z,16.57
2019-05-13T23:57:49.410Z,12.00
